sensor_id;sensor_type;location;lat;lon;timestamp;temperature;humidity
3564;DHT22;1796;52.388;13.096;2022-09-27T00:00:33;11.30;99.90
3564;DHT22;1796;52.388;13.096;2022-09-27T00:03:00;11.40;99.90
3564;DHT22;1796;52.388;13.096;2022-09-27T00:05:27;11.40;99.90
3564;DHT22;1796;52.388;13.096;2022-09-27T00:07:55;11.40;99.90
3564;DHT22;1796;52.388;13.096;2022-09-27T00:10:22;11.40;99.90
3564;DHT22;1796;52.388;13.096;2022-09-27T00:12:51;11.40;99.90
3564;DHT22;1796;52.388;13.096;2022-09-27T00:15:18;11.40;99.90
3564;DHT22;1796;52.388;13.096;2022-09-27T00:17:46;11.40;99.90
3564;DHT22;1796;52.388;13.096;2022-09-27T00:20:17;11.40;99.90
3564;DHT22;1796;52.388;13.096;2022-09-27T00:22:45;11.40;99.90
3564;DHT22;1796;52.388;13.096;2022-09-27T00:25:12;11.40;99.90
3564;DHT22;1796;52.388;13.096;2022-09-27T00:27:39;11.40;99.90
3564;DHT22;1796;52.388;13.096;2022-09-27T00:30:09;11.40;99.90
3564;DHT22;1796;52.388;13.096;2022-09-27T00:32:37;11.40;99.90
3564;DHT22;1796;52.388;13.096;2022-09-27T00:35:04;11.50;99.90
3564;DHT22;1796;52.388;13.096;2022-09-27T00:37:31;11.50;99.90
3564;DHT22;1796;52.388;13.096;2022-09-27T00:39:58;11.50;99.90
3564;DHT22;1796;52.388;13.096;2022-09-27T00:42:25;11.50;99.90
3564;DHT22;1796;52.388;13.096;2022-09-27T00:45:09;11.50;99.90
3564;DHT22;1796;52.388;13.096;2022-09-27T00:47:42;11.50;99.90
3564;DHT22;1796;52.388;13.096;2022-09-27T00:50:23;11.50;99.90
3564;DHT22;1796;52.388;13.096;2022-09-27T00:53:00;11.50;99.90
3564;DHT22;1796;52.388;13.096;2022-09-27T00:55:33;11.50;99.90
3564;DHT22;1796;52.388;13.096;2022-09-27T00:58:01;11.50;99.90
3564;DHT22;1796;52.388;13.096;2022-09-27T01:00:31;11.50;99.90
3564;DHT22;1796;52.388;13.096;2022-09-27T01:02:58;11.50;99.90
3564;DHT22;1796;52.388;13.096;2022-09-27T01:05:28;11.50;99.90
3564;DHT22;1796;52.388;13.096;2022-09-27T01:07:55;11.50;99.90
3564;DHT22;1796;52.388;13.096;2022-09-27T01:10:31;11.40;99.90
3564;DHT22;1796;52.388;13.096;2022-09-27T01:13:09;11.50;99.90
3564;DHT22;1796;52.388;13.096;2022-09-27T01:15:42;11.50;99.90
3564;DHT22;1796;52.388;13.096;2022-09-27T01:18:28;11.40;99.90
3564;DHT22;1796;52.388;13.096;2022-09-27T01:21:41;11.50;99.90
3564;DHT22;1796;52.388;13.096;2022-09-27T01:24:33;11.50;99.90
3564;DHT22;1796;52.388;13.096;2022-09-27T01:27:23;11.50;99.90
3564;DHT22;1796;52.388;13.096;2022-09-27T01:30:12;11.40;99.90
3564;DHT22;1796;52.388;13.096;2022-09-27T01:32:44;11.50;99.90
3564;DHT22;1796;52.388;13.096;2022-09-27T01:35:19;11.50;99.90
3564;DHT22;1796;52.388;13.096;2022-09-27T01:37:50;11.50;99.90
3564;DHT22;1796;52.388;13.096;2022-09-27T01:40:23;11.60;99.90
3564;DHT22;1796;52.388;13.096;2022-09-27T01:42:57;11.60;99.90
3564;DHT22;1796;52.388;13.096;2022-09-27T01:45:30;11.60;99.90
3564;DHT22;1796;52.388;13.096;2022-09-27T01:48:01;11.60;99.90
3564;DHT22;1796;52.388;13.096;2022-09-27T01:50:32;11.60;99.90
3564;DHT22;1796;52.388;13.096;2022-09-27T01:53:03;11.60;99.90
3564;DHT22;1796;52.388;13.096;2022-09-27T01:55:35;11.60;99.90
3564;DHT22;1796;52.388;13.096;2022-09-27T01:58:08;11.60;99.90
3564;DHT22;1796;52.388;13.096;2022-09-27T02:00:39;11.70;99.90
3564;DHT22;1796;52.388;13.096;2022-09-27T02:03:11;11.60;99.90
3564;DHT22;1796;52.388;13.096;2022-09-27T02:05:42;11.70;99.90
3564;DHT22;1796;52.388;13.096;2022-09-27T02:08:17;11.70;99.90
3564;DHT22;1796;52.388;13.096;2022-09-27T02:10:48;11.80;99.90
3564;DHT22;1796;52.388;13.096;2022-09-27T02:13:21;11.70;99.90
3564;DHT22;1796;52.388;13.096;2022-09-27T02:15:56;11.70;99.90
3564;DHT22;1796;52.388;13.096;2022-09-27T02:18:28;11.70;99.90
3564;DHT22;1796;52.388;13.096;2022-09-27T02:21:01;11.80;99.90
3564;DHT22;1796;52.388;13.096;2022-09-27T02:23:35;11.80;99.90
3564;DHT22;1796;52.388;13.096;2022-09-27T02:26:11;11.80;99.90
3564;DHT22;1796;52.388;13.096;2022-09-27T02:28:41;11.80;99.90
3564;DHT22;1796;52.388;13.096;2022-09-27T02:31:12;11.70;99.90
3564;DHT22;1796;52.388;13.096;2022-09-27T02:33:43;11.60;99.90
3564;DHT22;1796;52.388;13.096;2022-09-27T02:36:11;11.50;99.90
3564;DHT22;1796;52.388;13.096;2022-09-27T02:38:38;11.40;99.90
3564;DHT22;1796;52.388;13.096;2022-09-27T02:41:12;11.40;99.90
3564;DHT22;1796;52.388;13.096;2022-09-27T02:43:40;11.40;99.90
3564;DHT22;1796;52.388;13.096;2022-09-27T02:46:23;11.50;99.90
3564;DHT22;1796;52.388;13.096;2022-09-27T02:49:00;11.50;99.90
3564;DHT22;1796;52.388;13.096;2022-09-27T02:51:40;11.40;99.90
3564;DHT22;1796;52.388;13.096;2022-09-27T02:54:16;11.30;99.90
3564;DHT22;1796;52.388;13.096;2022-09-27T02:56:53;11.30;99.90
3564;DHT22;1796;52.388;13.096;2022-09-27T02:59:28;11.20;99.90
3564;DHT22;1796;52.388;13.096;2022-09-27T03:02:05;11.20;99.90
3564;DHT22;1796;52.388;13.096;2022-09-27T03:04:38;11.20;99.90
3564;DHT22;1796;52.388;13.096;2022-09-27T03:07:05;11.20;99.90
3564;DHT22;1796;52.388;13.096;2022-09-27T03:09:40;11.10;99.90
3564;DHT22;1796;52.388;13.096;2022-09-27T03:12:07;11.10;99.90
3564;DHT22;1796;52.388;13.096;2022-09-27T03:14:34;11.00;99.90
3564;DHT22;1796;52.388;13.096;2022-09-27T03:17:03;11.00;99.90
3564;DHT22;1796;52.388;13.096;2022-09-27T03:19:30;10.90;99.90
3564;DHT22;1796;52.388;13.096;2022-09-27T03:21:57;10.90;99.90
3564;DHT22;1796;52.388;13.096;2022-09-27T03:24:24;10.90;99.90
3564;DHT22;1796;52.388;13.096;2022-09-27T03:26:51;10.90;99.90
3564;DHT22;1796;52.388;13.096;2022-09-27T03:29:18;10.80;99.90
3564;DHT22;1796;52.388;13.096;2022-09-27T03:31:45;10.80;99.90
3564;DHT22;1796;52.388;13.096;2022-09-27T03:34:13;10.70;99.90
3564;DHT22;1796;52.388;13.096;2022-09-27T03:36:40;10.70;99.90
3564;DHT22;1796;52.388;13.096;2022-09-27T03:39:07;10.60;99.90
3564;DHT22;1796;52.388;13.096;2022-09-27T03:41:34;10.70;99.90
3564;DHT22;1796;52.388;13.096;2022-09-27T03:44:03;10.70;99.90
3564;DHT22;1796;52.388;13.096;2022-09-27T03:46:29;10.60;99.90
3564;DHT22;1796;52.388;13.096;2022-09-27T03:48:56;10.60;99.90
3564;DHT22;1796;52.388;13.096;2022-09-27T03:51:25;10.60;99.90
3564;DHT22;1796;52.388;13.096;2022-09-27T03:53:52;10.60;99.90
3564;DHT22;1796;52.388;13.096;2022-09-27T03:56:19;10.60;99.90
3564;DHT22;1796;52.388;13.096;2022-09-27T03:58:46;10.60;99.90
3564;DHT22;1796;52.388;13.096;2022-09-27T04:01:13;10.50;99.90
3564;DHT22;1796;52.388;13.096;2022-09-27T04:03:40;10.50;99.90
3564;DHT22;1796;52.388;13.096;2022-09-27T04:06:07;10.50;99.90
3564;DHT22;1796;52.388;13.096;2022-09-27T04:08:36;10.40;99.90
3564;DHT22;1796;52.388;13.096;2022-09-27T04:11:03;10.50;99.90
3564;DHT22;1796;52.388;13.096;2022-09-27T04:13:30;10.40;99.90
3564;DHT22;1796;52.388;13.096;2022-09-27T04:15:57;10.40;99.90
3564;DHT22;1796;52.388;13.096;2022-09-27T04:18:24;10.40;99.90
3564;DHT22;1796;52.388;13.096;2022-09-27T04:20:51;10.40;99.90
3564;DHT22;1796;52.388;13.096;2022-09-27T04:23:18;10.40;99.90
3564;DHT22;1796;52.388;13.096;2022-09-27T04:25:46;10.40;99.90
3564;DHT22;1796;52.388;13.096;2022-09-27T04:28:13;10.40;99.90
3564;DHT22;1796;52.388;13.096;2022-09-27T04:30:41;10.40;99.90
3564;DHT22;1796;52.388;13.096;2022-09-27T04:33:08;10.40;99.90
3564;DHT22;1796;52.388;13.096;2022-09-27T04:35:35;10.40;99.90
3564;DHT22;1796;52.388;13.096;2022-09-27T04:38:30;10.40;99.90
3564;DHT22;1796;52.388;13.096;2022-09-27T04:40:58;10.30;99.90
3564;DHT22;1796;52.388;13.096;2022-09-27T04:43:26;10.30;99.90
3564;DHT22;1796;52.388;13.096;2022-09-27T04:45:54;10.30;99.90
3564;DHT22;1796;52.388;13.096;2022-09-27T04:48:20;10.30;99.90
3564;DHT22;1796;52.388;13.096;2022-09-27T04:50:55;10.30;99.90
3564;DHT22;1796;52.388;13.096;2022-09-27T04:53:23;10.30;99.90
3564;DHT22;1796;52.388;13.096;2022-09-27T04:55:52;10.30;99.90
3564;DHT22;1796;52.388;13.096;2022-09-27T04:58:20;10.30;99.90
3564;DHT22;1796;52.388;13.096;2022-09-27T05:00:47;10.30;99.90
3564;DHT22;1796;52.388;13.096;2022-09-27T05:03:16;10.30;99.90
3564;DHT22;1796;52.388;13.096;2022-09-27T05:05:44;10.40;99.90
3564;DHT22;1796;52.388;13.096;2022-09-27T05:08:11;10.30;99.90
3564;DHT22;1796;52.388;13.096;2022-09-27T05:10:38;10.40;99.90
3564;DHT22;1796;52.388;13.096;2022-09-27T05:13:05;10.30;99.90
3564;DHT22;1796;52.388;13.096;2022-09-27T05:15:33;10.30;99.90
3564;DHT22;1796;52.388;13.096;2022-09-27T05:18:01;10.30;99.90
3564;DHT22;1796;52.388;13.096;2022-09-27T05:20:28;10.30;99.90
3564;DHT22;1796;52.388;13.096;2022-09-27T05:22:55;10.30;99.90
3564;DHT22;1796;52.388;13.096;2022-09-27T05:25:22;10.30;99.90
3564;DHT22;1796;52.388;13.096;2022-09-27T05:27:50;10.30;99.90
3564;DHT22;1796;52.388;13.096;2022-09-27T05:30:17;10.30;99.90
3564;DHT22;1796;52.388;13.096;2022-09-27T05:32:46;10.30;99.90
3564;DHT22;1796;52.388;13.096;2022-09-27T05:35:14;10.30;99.90
3564;DHT22;1796;52.388;13.096;2022-09-27T05:37:42;10.40;99.90
3564;DHT22;1796;52.388;13.096;2022-09-27T05:40:10;10.40;99.90
3564;DHT22;1796;52.388;13.096;2022-09-27T05:42:37;10.40;99.90
3564;DHT22;1796;52.388;13.096;2022-09-27T05:45:05;10.40;99.90
3564;DHT22;1796;52.388;13.096;2022-09-27T05:47:32;10.50;99.90
3564;DHT22;1796;52.388;13.096;2022-09-27T05:50:01;10.50;99.90
3564;DHT22;1796;52.388;13.096;2022-09-27T05:52:28;10.50;99.90
3564;DHT22;1796;52.388;13.096;2022-09-27T05:54:55;10.50;99.90
3564;DHT22;1796;52.388;13.096;2022-09-27T05:57:23;10.50;99.90
3564;DHT22;1796;52.388;13.096;2022-09-27T05:59:50;10.50;99.90
3564;DHT22;1796;52.388;13.096;2022-09-27T06:02:17;10.60;99.90
3564;DHT22;1796;52.388;13.096;2022-09-27T06:04:44;10.60;99.90
3564;DHT22;1796;52.388;13.096;2022-09-27T06:07:13;10.60;99.90
3564;DHT22;1796;52.388;13.096;2022-09-27T06:09:40;10.60;99.90
3564;DHT22;1796;52.388;13.096;2022-09-27T06:12:08;10.70;99.90
3564;DHT22;1796;52.388;13.096;2022-09-27T06:14:36;10.70;99.90
3564;DHT22;1796;52.388;13.096;2022-09-27T06:17:04;10.70;99.90
3564;DHT22;1796;52.388;13.096;2022-09-27T06:19:31;10.80;99.90
3564;DHT22;1796;52.388;13.096;2022-09-27T06:21:58;10.80;99.90
3564;DHT22;1796;52.388;13.096;2022-09-27T06:24:26;10.80;99.90
3564;DHT22;1796;52.388;13.096;2022-09-27T06:26:53;10.80;99.90
3564;DHT22;1796;52.388;13.096;2022-09-27T06:29:20;10.80;99.90
3564;DHT22;1796;52.388;13.096;2022-09-27T06:31:47;10.80;99.90
3564;DHT22;1796;52.388;13.096;2022-09-27T06:34:14;10.70;99.90
3564;DHT22;1796;52.388;13.096;2022-09-27T06:36:41;10.70;99.90
3564;DHT22;1796;52.388;13.096;2022-09-27T06:39:08;10.70;99.90
3564;DHT22;1796;52.388;13.096;2022-09-27T06:41:36;10.80;99.90
3564;DHT22;1796;52.388;13.096;2022-09-27T06:44:04;10.70;99.90
3564;DHT22;1796;52.388;13.096;2022-09-27T06:46:31;10.80;99.90
3564;DHT22;1796;52.388;13.096;2022-09-27T06:48:58;10.80;99.90
3564;DHT22;1796;52.388;13.096;2022-09-27T06:51:25;10.90;99.90
3564;DHT22;1796;52.388;13.096;2022-09-27T06:53:52;10.90;99.90
3564;DHT22;1796;52.388;13.096;2022-09-27T06:56:19;10.90;99.90
3564;DHT22;1796;52.388;13.096;2022-09-27T06:58:47;10.90;99.90
3564;DHT22;1796;52.388;13.096;2022-09-27T07:01:31;11.00;99.90
3564;DHT22;1796;52.388;13.096;2022-09-27T07:04:00;11.00;99.90
3564;DHT22;1796;52.388;13.096;2022-09-27T07:06:27;11.10;99.90
3564;DHT22;1796;52.388;13.096;2022-09-27T07:08:55;11.10;99.90
3564;DHT22;1796;52.388;13.096;2022-09-27T07:11:22;11.20;99.90
3564;DHT22;1796;52.388;13.096;2022-09-27T07:13:52;11.30;99.90
3564;DHT22;1796;52.388;13.096;2022-09-27T07:16:21;11.30;99.90
3564;DHT22;1796;52.388;13.096;2022-09-27T07:18:49;11.40;99.90
3564;DHT22;1796;52.388;13.096;2022-09-27T07:21:16;11.40;99.90
3564;DHT22;1796;52.388;13.096;2022-09-27T07:23:42;11.40;99.90
3564;DHT22;1796;52.388;13.096;2022-09-27T07:26:10;11.40;99.90
3564;DHT22;1796;52.388;13.096;2022-09-27T07:28:37;11.50;99.90
3564;DHT22;1796;52.388;13.096;2022-09-27T07:31:08;11.40;99.90
3564;DHT22;1796;52.388;13.096;2022-09-27T07:33:35;11.40;99.90
3564;DHT22;1796;52.388;13.096;2022-09-27T07:36:06;11.50;99.90
3564;DHT22;1796;52.388;13.096;2022-09-27T07:38:33;11.50;99.90
3564;DHT22;1796;52.388;13.096;2022-09-27T07:41:04;11.60;99.90
3564;DHT22;1796;52.388;13.096;2022-09-27T07:43:31;11.60;99.90
3564;DHT22;1796;52.388;13.096;2022-09-27T07:45:58;11.70;99.90
3564;DHT22;1796;52.388;13.096;2022-09-27T07:48:27;11.80;99.90
3564;DHT22;1796;52.388;13.096;2022-09-27T07:50:54;12.00;99.90
3564;DHT22;1796;52.388;13.096;2022-09-27T07:53:21;12.00;99.90
3564;DHT22;1796;52.388;13.096;2022-09-27T07:55:49;12.10;99.90
3564;DHT22;1796;52.388;13.096;2022-09-27T07:58:17;12.10;99.90
3564;DHT22;1796;52.388;13.096;2022-09-27T08:00:44;12.10;99.90
3564;DHT22;1796;52.388;13.096;2022-09-27T08:03:14;12.10;99.90
3564;DHT22;1796;52.388;13.096;2022-09-27T08:05:43;12.00;99.90
3564;DHT22;1796;52.388;13.096;2022-09-27T08:08:10;12.00;99.90
3564;DHT22;1796;52.388;13.096;2022-09-27T08:10:37;11.90;99.90
3564;DHT22;1796;52.388;13.096;2022-09-27T08:13:09;12.00;99.90
3564;DHT22;1796;52.388;13.096;2022-09-27T08:15:36;12.00;99.90
3564;DHT22;1796;52.388;13.096;2022-09-27T08:18:05;12.10;99.90
3564;DHT22;1796;52.388;13.096;2022-09-27T08:20:34;12.00;99.90
3564;DHT22;1796;52.388;13.096;2022-09-27T08:23:02;12.10;99.90
3564;DHT22;1796;52.388;13.096;2022-09-27T08:25:29;12.20;99.90
3564;DHT22;1796;52.388;13.096;2022-09-27T08:27:57;12.30;99.90
3564;DHT22;1796;52.388;13.096;2022-09-27T08:30:25;12.40;99.90
3564;DHT22;1796;52.388;13.096;2022-09-27T08:32:56;12.50;99.90
3564;DHT22;1796;52.388;13.096;2022-09-27T08:35:23;12.60;99.90
3564;DHT22;1796;52.388;13.096;2022-09-27T08:37:54;12.70;99.90
3564;DHT22;1796;52.388;13.096;2022-09-27T08:40:23;12.80;99.90
3564;DHT22;1796;52.388;13.096;2022-09-27T08:42:59;12.90;99.90
3564;DHT22;1796;52.388;13.096;2022-09-27T08:45:29;13.10;99.90
3564;DHT22;1796;52.388;13.096;2022-09-27T08:47:59;13.20;99.90
3564;DHT22;1796;52.388;13.096;2022-09-27T08:50:28;13.30;99.90
3564;DHT22;1796;52.388;13.096;2022-09-27T08:52:59;13.40;99.90
3564;DHT22;1796;52.388;13.096;2022-09-27T08:55:34;13.50;99.90
3564;DHT22;1796;52.388;13.096;2022-09-27T08:58:08;13.50;99.90
3564;DHT22;1796;52.388;13.096;2022-09-27T09:00:38;13.50;99.90
3564;DHT22;1796;52.388;13.096;2022-09-27T09:03:14;13.50;99.90
3564;DHT22;1796;52.388;13.096;2022-09-27T09:05:50;13.50;99.90
3564;DHT22;1796;52.388;13.096;2022-09-27T09:08:26;13.70;99.90
3564;DHT22;1796;52.388;13.096;2022-09-27T09:11:04;13.80;99.90
3564;DHT22;1796;52.388;13.096;2022-09-27T09:14:20;13.90;99.90
3564;DHT22;1796;52.388;13.096;2022-09-27T09:16:58;14.00;99.90
3564;DHT22;1796;52.388;13.096;2022-09-27T09:19:43;14.00;99.90
3564;DHT22;1796;52.388;13.096;2022-09-27T09:22:35;14.20;99.90
3564;DHT22;1796;52.388;13.096;2022-09-27T09:25:14;14.30;99.90
3564;DHT22;1796;52.388;13.096;2022-09-27T09:27:53;14.30;99.90
3564;DHT22;1796;52.388;13.096;2022-09-27T09:30:34;14.30;99.90
3564;DHT22;1796;52.388;13.096;2022-09-27T09:33:20;14.20;99.90
3564;DHT22;1796;52.388;13.096;2022-09-27T09:35:52;14.30;99.90
3564;DHT22;1796;52.388;13.096;2022-09-27T09:38:28;14.20;99.90
3564;DHT22;1796;52.388;13.096;2022-09-27T09:41:04;14.10;99.90
3564;DHT22;1796;52.388;13.096;2022-09-27T09:43:36;13.90;99.90
3564;DHT22;1796;52.388;13.096;2022-09-27T09:46:09;13.70;99.90
3564;DHT22;1796;52.388;13.096;2022-09-27T09:48:41;13.50;99.90
3564;DHT22;1796;52.388;13.096;2022-09-27T09:51:14;13.50;99.90
3564;DHT22;1796;52.388;13.096;2022-09-27T09:53:49;13.80;99.90
3564;DHT22;1796;52.388;13.096;2022-09-27T09:56:22;14.20;99.90
3564;DHT22;1796;52.388;13.096;2022-09-27T09:58:54;14.40;99.90
3564;DHT22;1796;52.388;13.096;2022-09-27T10:01:25;14.70;99.90
3564;DHT22;1796;52.388;13.096;2022-09-27T10:03:53;15.00;99.90
3564;DHT22;1796;52.388;13.096;2022-09-27T10:06:20;15.10;99.90
3564;DHT22;1796;52.388;13.096;2022-09-27T10:08:48;15.20;99.90
3564;DHT22;1796;52.388;13.096;2022-09-27T10:11:21;15.20;99.90
3564;DHT22;1796;52.388;13.096;2022-09-27T10:13:48;15.30;99.90
3564;DHT22;1796;52.388;13.096;2022-09-27T10:16:19;15.30;99.90
3564;DHT22;1796;52.388;13.096;2022-09-27T10:18:46;15.30;99.90
3564;DHT22;1796;52.388;13.096;2022-09-27T10:21:19;15.30;99.90
3564;DHT22;1796;52.388;13.096;2022-09-27T10:24:06;15.10;99.90
3564;DHT22;1796;52.388;13.096;2022-09-27T10:26:34;15.00;99.90
3564;DHT22;1796;52.388;13.096;2022-09-27T10:29:16;14.60;99.90
3564;DHT22;1796;52.388;13.096;2022-09-27T10:31:49;14.60;99.90
3564;DHT22;1796;52.388;13.096;2022-09-27T10:34:20;14.70;99.90
3564;DHT22;1796;52.388;13.096;2022-09-27T10:37:13;14.80;99.90
3564;DHT22;1796;52.388;13.096;2022-09-27T10:39:42;15.00;99.90
3564;DHT22;1796;52.388;13.096;2022-09-27T10:42:29;15.10;99.90
3564;DHT22;1796;52.388;13.096;2022-09-27T10:44:57;15.10;99.90
3564;DHT22;1796;52.388;13.096;2022-09-27T10:47:25;15.40;99.90
3564;DHT22;1796;52.388;13.096;2022-09-27T10:50:03;15.50;99.90
3564;DHT22;1796;52.388;13.096;2022-09-27T10:52:32;15.70;99.90
3564;DHT22;1796;52.388;13.096;2022-09-27T10:55:04;15.90;99.90
3564;DHT22;1796;52.388;13.096;2022-09-27T10:57:33;16.00;99.90
3564;DHT22;1796;52.388;13.096;2022-09-27T11:00:04;16.10;99.90
3564;DHT22;1796;52.388;13.096;2022-09-27T11:02:35;16.20;99.90
3564;DHT22;1796;52.388;13.096;2022-09-27T11:05:07;16.00;99.90
3564;DHT22;1796;52.388;13.096;2022-09-27T11:07:36;15.70;99.90
3564;DHT22;1796;52.388;13.096;2022-09-27T11:10:21;15.40;99.90
3564;DHT22;1796;52.388;13.096;2022-09-27T11:13:10;14.10;99.90
3564;DHT22;1796;52.388;13.096;2022-09-27T11:15:51;12.80;99.90
3564;DHT22;1796;52.388;13.096;2022-09-27T11:18:31;12.10;99.90
3564;DHT22;1796;52.388;13.096;2022-09-27T11:21:08;11.90;99.90
3564;DHT22;1796;52.388;13.096;2022-09-27T11:23:50;11.80;99.90
3564;DHT22;1796;52.388;13.096;2022-09-27T11:26:35;11.90;99.90
3564;DHT22;1796;52.388;13.096;2022-09-27T11:29:17;11.80;99.90
3564;DHT22;1796;52.388;13.096;2022-09-27T11:31:57;12.00;99.90
3564;DHT22;1796;52.388;13.096;2022-09-27T11:34:57;12.30;99.90
3564;DHT22;1796;52.388;13.096;2022-09-27T11:37:32;12.50;99.90
3564;DHT22;1796;52.388;13.096;2022-09-27T11:40:12;12.40;99.90
3564;DHT22;1796;52.388;13.096;2022-09-27T11:43:02;12.50;99.90
3564;DHT22;1796;52.388;13.096;2022-09-27T11:45:43;12.50;99.90
3564;DHT22;1796;52.388;13.096;2022-09-27T11:48:26;12.50;99.90
3564;DHT22;1796;52.388;13.096;2022-09-27T11:51:18;12.70;99.90
3564;DHT22;1796;52.388;13.096;2022-09-27T11:54:00;12.70;99.90
3564;DHT22;1796;52.388;13.096;2022-09-27T11:56:39;12.60;99.90
3564;DHT22;1796;52.388;13.096;2022-09-27T11:59:42;12.60;99.90
3564;DHT22;1796;52.388;13.096;2022-09-27T12:02:28;12.60;99.90
3564;DHT22;1796;52.388;13.096;2022-09-27T12:05:06;12.60;99.90
3564;DHT22;1796;52.388;13.096;2022-09-27T12:07:43;12.60;99.90
3564;DHT22;1796;52.388;13.096;2022-09-27T12:10:14;12.50;99.90
3564;DHT22;1796;52.388;13.096;2022-09-27T12:12:44;12.40;99.90
3564;DHT22;1796;52.388;13.096;2022-09-27T12:15:15;12.30;99.90
3564;DHT22;1796;52.388;13.096;2022-09-27T12:17:44;12.20;99.90
3564;DHT22;1796;52.388;13.096;2022-09-27T12:20:18;12.30;99.90
3564;DHT22;1796;52.388;13.096;2022-09-27T12:22:53;12.50;99.90
3564;DHT22;1796;52.388;13.096;2022-09-27T12:25:22;12.90;99.90
3564;DHT22;1796;52.388;13.096;2022-09-27T12:27:55;13.30;99.90
3564;DHT22;1796;52.388;13.096;2022-09-27T12:30:23;13.50;99.90
3564;DHT22;1796;52.388;13.096;2022-09-27T12:32:55;13.80;99.90
3564;DHT22;1796;52.388;13.096;2022-09-27T12:35:26;14.00;99.90
3564;DHT22;1796;52.388;13.096;2022-09-27T12:37:59;14.00;99.90
3564;DHT22;1796;52.388;13.096;2022-09-27T12:40:29;13.80;99.90
3564;DHT22;1796;52.388;13.096;2022-09-27T12:43:01;13.70;99.90
3564;DHT22;1796;52.388;13.096;2022-09-27T12:45:38;13.70;99.90
3564;DHT22;1796;52.388;13.096;2022-09-27T12:48:10;13.50;99.90
3564;DHT22;1796;52.388;13.096;2022-09-27T12:50:43;13.40;99.90
3564;DHT22;1796;52.388;13.096;2022-09-27T12:53:18;13.40;99.90
3564;DHT22;1796;52.388;13.096;2022-09-27T12:59:14;13.80;99.90
3564;DHT22;1796;52.388;13.096;2022-09-27T13:05:03;14.20;99.90
3564;DHT22;1796;52.388;13.096;2022-09-27T13:07:43;14.30;99.90
3564;DHT22;1796;52.388;13.096;2022-09-27T13:10:41;14.30;99.90
3564;DHT22;1796;52.388;13.096;2022-09-27T13:13:14;14.40;99.90
3564;DHT22;1796;52.388;13.096;2022-09-27T13:15:43;14.20;99.90
3564;DHT22;1796;52.388;13.096;2022-09-27T13:18:29;14.10;99.90
3564;DHT22;1796;52.388;13.096;2022-09-27T13:20:56;14.00;99.90
3564;DHT22;1796;52.388;13.096;2022-09-27T13:23:56;14.30;99.90
3564;DHT22;1796;52.388;13.096;2022-09-27T13:26:46;14.20;99.90
3564;DHT22;1796;52.388;13.096;2022-09-27T13:29:23;14.00;99.90
3564;DHT22;1796;52.388;13.096;2022-09-27T13:32:18;13.90;99.90
3564;DHT22;1796;52.388;13.096;2022-09-27T13:34:47;13.50;99.90
3564;DHT22;1796;52.388;13.096;2022-09-27T13:37:35;13.50;99.90
3564;DHT22;1796;52.388;13.096;2022-09-27T13:40:19;13.60;99.90
3564;DHT22;1796;52.388;13.096;2022-09-27T13:43:03;13.60;99.90
3564;DHT22;1796;52.388;13.096;2022-09-27T13:45:35;13.50;99.90
3564;DHT22;1796;52.388;13.096;2022-09-27T13:48:11;13.30;99.90
3564;DHT22;1796;52.388;13.096;2022-09-27T13:50:47;12.90;99.90
3564;DHT22;1796;52.388;13.096;2022-09-27T13:53:21;12.70;99.90
3564;DHT22;1796;52.388;13.096;2022-09-27T13:55:50;12.40;99.90
3564;DHT22;1796;52.388;13.096;2022-09-27T13:58:41;12.40;99.90
3564;DHT22;1796;52.388;13.096;2022-09-27T14:01:16;12.40;99.90
3564;DHT22;1796;52.388;13.096;2022-09-27T14:03:53;12.40;99.90
3564;DHT22;1796;52.388;13.096;2022-09-27T14:06:25;12.50;99.90
3564;DHT22;1796;52.388;13.096;2022-09-27T14:08:55;12.60;99.90
3564;DHT22;1796;52.388;13.096;2022-09-27T14:11:26;12.70;99.90
3564;DHT22;1796;52.388;13.096;2022-09-27T14:13:55;12.80;99.90
3564;DHT22;1796;52.388;13.096;2022-09-27T14:16:24;13.00;99.90
3564;DHT22;1796;52.388;13.096;2022-09-27T14:18:55;13.20;99.90
3564;DHT22;1796;52.388;13.096;2022-09-27T14:21:30;13.30;99.90
3564;DHT22;1796;52.388;13.096;2022-09-27T14:24:24;13.30;99.90
3564;DHT22;1796;52.388;13.096;2022-09-27T14:27:11;13.20;99.90
3564;DHT22;1796;52.388;13.096;2022-09-27T14:29:42;13.20;99.90
3564;DHT22;1796;52.388;13.096;2022-09-27T14:32:10;13.10;99.90
3564;DHT22;1796;52.388;13.096;2022-09-27T14:34:38;13.10;99.90
3564;DHT22;1796;52.388;13.096;2022-09-27T14:37:10;13.10;99.90
3564;DHT22;1796;52.388;13.096;2022-09-27T14:40:02;13.20;99.90
3564;DHT22;1796;52.388;13.096;2022-09-27T14:42:34;13.10;99.90
3564;DHT22;1796;52.388;13.096;2022-09-27T14:45:12;13.10;99.90
3564;DHT22;1796;52.388;13.096;2022-09-27T14:47:44;13.10;99.90
3564;DHT22;1796;52.388;13.096;2022-09-27T14:50:17;13.10;99.90
3564;DHT22;1796;52.388;13.096;2022-09-27T14:52:44;13.10;99.90
3564;DHT22;1796;52.388;13.096;2022-09-27T14:55:17;13.10;99.90
3564;DHT22;1796;52.388;13.096;2022-09-27T14:57:45;13.10;99.90
3564;DHT22;1796;52.388;13.096;2022-09-27T15:00:18;12.80;99.90
3564;DHT22;1796;52.388;13.096;2022-09-27T15:02:47;12.70;99.90
3564;DHT22;1796;52.388;13.096;2022-09-27T15:05:16;12.60;99.90
3564;DHT22;1796;52.388;13.096;2022-09-27T15:07:44;12.50;99.90
3564;DHT22;1796;52.388;13.096;2022-09-27T15:10:14;12.30;99.90
3564;DHT22;1796;52.388;13.096;2022-09-27T15:12:44;12.20;99.90
3564;DHT22;1796;52.388;13.096;2022-09-27T15:15:22;12.10;99.90
3564;DHT22;1796;52.388;13.096;2022-09-27T15:17:50;12.00;99.90
3564;DHT22;1796;52.388;13.096;2022-09-27T15:20:27;11.90;99.90
3564;DHT22;1796;52.388;13.096;2022-09-27T15:22:56;12.00;99.90
3564;DHT22;1796;52.388;13.096;2022-09-27T15:25:26;11.90;99.90
3564;DHT22;1796;52.388;13.096;2022-09-27T15:27:58;11.80;99.90
3564;DHT22;1796;52.388;13.096;2022-09-27T15:30:28;11.80;99.90
3564;DHT22;1796;52.388;13.096;2022-09-27T15:32:59;11.90;99.90
3564;DHT22;1796;52.388;13.096;2022-09-27T15:35:30;11.80;99.90
3564;DHT22;1796;52.388;13.096;2022-09-27T15:38:24;11.80;99.90
3564;DHT22;1796;52.388;13.096;2022-09-27T15:41:07;11.80;99.90
3564;DHT22;1796;52.388;13.096;2022-09-27T15:43:37;11.70;99.90
3564;DHT22;1796;52.388;13.096;2022-09-27T15:46:25;11.70;99.90
3564;DHT22;1796;52.388;13.096;2022-09-27T15:49:21;11.70;99.90
3564;DHT22;1796;52.388;13.096;2022-09-27T15:51:49;11.60;99.90
3564;DHT22;1796;52.388;13.096;2022-09-27T15:54:17;11.60;99.90
3564;DHT22;1796;52.388;13.096;2022-09-27T15:56:45;11.50;99.90
3564;DHT22;1796;52.388;13.096;2022-09-27T15:59:18;11.40;99.90
3564;DHT22;1796;52.388;13.096;2022-09-27T16:01:47;11.50;99.90
3564;DHT22;1796;52.388;13.096;2022-09-27T16:04:17;11.30;99.90
3564;DHT22;1796;52.388;13.096;2022-09-27T16:06:44;11.40;99.90
3564;DHT22;1796;52.388;13.096;2022-09-27T16:09:13;11.40;99.90
3564;DHT22;1796;52.388;13.096;2022-09-27T16:11:44;11.40;99.90
3564;DHT22;1796;52.388;13.096;2022-09-27T16:14:18;11.40;99.90
3564;DHT22;1796;52.388;13.096;2022-09-27T16:16:47;11.30;99.90
3564;DHT22;1796;52.388;13.096;2022-09-27T16:19:14;11.30;99.90
3564;DHT22;1796;52.388;13.096;2022-09-27T16:21:41;11.20;99.90
3564;DHT22;1796;52.388;13.096;2022-09-27T16:24:09;11.20;99.90